sensor_id;sensor_type;location;lat;lon;timestamp;P1;durP1;ratioP1;P2;durP2;ratioP2
28188;SDS011;15471;51.166;4.470;2023-02-28T00:00:13;0.40;;;0.40;;
28188;SDS011;15471;51.166;4.470;2023-02-28T00:02:40;0.40;;;0.40;;
28188;SDS011;15471;51.166;4.470;2023-02-28T00:05:07;0.40;;;0.40;;
28188;SDS011;15471;51.166;4.470;2023-02-28T00:07:34;0.30;;;0.30;;
28188;SDS011;15471;51.166;4.470;2023-02-28T00:10:00;0.30;;;0.30;;
28188;SDS011;15471;51.166;4.470;2023-02-28T00:12:27;0.40;;;0.40;;
28188;SDS011;15471;51.166;4.470;2023-02-28T00:14:53;0.35;;;0.35;;
28188;SDS011;15471;51.166;4.470;2023-02-28T00:17:19;0.40;;;0.40;;
28188;SDS011;15471;51.166;4.470;2023-02-28T00:19:47;0.40;;;0.40;;
28188;SDS011;15471;51.166;4.470;2023-02-28T00:22:14;0.40;;;0.40;;
28188;SDS011;15471;51.166;4.470;2023-02-28T00:24:40;0.40;;;0.40;;
28188;SDS011;15471;51.166;4.470;2023-02-28T00:27:06;0.40;;;0.40;;
28188;SDS011;15471;51.166;4.470;2023-02-28T00:29:32;0.40;;;0.40;;
28188;SDS011;15471;51.166;4.470;2023-02-28T00:31:58;0.40;;;0.40;;
28188;SDS011;15471;51.166;4.470;2023-02-28T00:34:24;0.40;;;0.40;;
28188;SDS011;15471;51.166;4.470;2023-02-28T00:36:49;0.40;;;0.40;;
28188;SDS011;15471;51.166;4.470;2023-02-28T00:39:16;0.38;;;0.38;;
28188;SDS011;15471;51.166;4.470;2023-02-28T00:41:42;0.30;;;0.30;;
28188;SDS011;15471;51.166;4.470;2023-02-28T00:44:08;0.40;;;0.40;;
28188;SDS011;15471;51.166;4.470;2023-02-28T00:46:34;0.40;;;0.40;;
28188;SDS011;15471;51.166;4.470;2023-02-28T00:49:00;0.40;;;0.40;;
28188;SDS011;15471;51.166;4.470;2023-02-28T00:51:26;0.40;;;0.40;;
28188;SDS011;15471;51.166;4.470;2023-02-28T00:53:52;0.40;;;0.40;;
28188;SDS011;15471;51.166;4.470;2023-02-28T00:56:17;0.40;;;0.40;;
28188;SDS011;15471;51.166;4.470;2023-02-28T00:58:43;0.40;;;0.40;;
28188;SDS011;15471;51.166;4.470;2023-02-28T01:01:09;0.40;;;0.40;;
28188;SDS011;15471;51.166;4.470;2023-02-28T01:03:36;0.40;;;0.40;;
28188;SDS011;15471;51.166;4.470;2023-02-28T01:06:03;0.40;;;0.40;;
28188;SDS011;15471;51.166;4.470;2023-02-28T01:08:29;0.40;;;0.40;;
28188;SDS011;15471;51.166;4.470;2023-02-28T01:10:55;0.40;;;0.40;;
28188;SDS011;15471;51.166;4.470;2023-02-28T01:13:22;0.40;;;0.40;;
28188;SDS011;15471;51.166;4.470;2023-02-28T01:15:52;0.40;;;0.40;;
28188;SDS011;15471;51.166;4.470;2023-02-28T01:18:20;0.40;;;0.40;;
28188;SDS011;15471;51.166;4.470;2023-02-28T01:20:47;0.40;;;0.40;;
28188;SDS011;15471;51.166;4.470;2023-02-28T01:23:13;0.40;;;0.40;;
28188;SDS011;15471;51.166;4.470;2023-02-28T01:25:39;0.40;;;0.40;;
28188;SDS011;15471;51.166;4.470;2023-02-28T01:28:05;0.40;;;0.40;;
28188;SDS011;15471;51.166;4.470;2023-02-28T01:30:31;0.40;;;0.40;;
28188;SDS011;15471;51.166;4.470;2023-02-28T01:32:57;0.40;;;0.40;;
28188;SDS011;15471;51.166;4.470;2023-02-28T01:35:24;0.40;;;0.40;;
28188;SDS011;15471;51.166;4.470;2023-02-28T01:37:50;0.40;;;0.40;;
28188;SDS011;15471;51.166;4.470;2023-02-28T01:40:16;0.50;;;0.50;;
28188;SDS011;15471;51.166;4.470;2023-02-28T01:42:42;0.40;;;0.40;;
28188;SDS011;15471;51.166;4.470;2023-02-28T01:45:27;0.40;;;0.40;;
28188;SDS011;15471;51.166;4.470;2023-02-28T01:48:02;0.40;;;0.40;;
28188;SDS011;15471;51.166;4.470;2023-02-28T01:50:31;0.40;;;0.40;;
28188;SDS011;15471;51.166;4.470;2023-02-28T01:53:02;0.50;;;0.50;;
28188;SDS011;15471;51.166;4.470;2023-02-28T01:55:31;0.40;;;0.40;;
28188;SDS011;15471;51.166;4.470;2023-02-28T01:57:59;0.30;;;0.30;;
28188;SDS011;15471;51.166;4.470;2023-02-28T02:00:29;0.40;;;0.40;;
28188;SDS011;15471;51.166;4.470;2023-02-28T02:02:59;0.40;;;0.40;;
28188;SDS011;15471;51.166;4.470;2023-02-28T02:05:38;0.40;;;0.40;;
28188;SDS011;15471;51.166;4.470;2023-02-28T02:08:09;0.40;;;0.40;;
28188;SDS011;15471;51.166;4.470;2023-02-28T02:10:43;0.45;;;0.45;;
28188;SDS011;15471;51.166;4.470;2023-02-28T02:16:36;0.40;;;0.40;;
28188;SDS011;15471;51.166;4.470;2023-02-28T02:38:48;0.40;;;0.40;;
28188;SDS011;15471;51.166;4.470;2023-02-28T02:41:28;0.40;;;0.40;;
28188;SDS011;15471;51.166;4.470;2023-02-28T02:44:17;0.40;;;0.40;;
28188;SDS011;15471;51.166;4.470;2023-02-28T02:46:48;0.40;;;0.40;;
28188;SDS011;15471;51.166;4.470;2023-02-28T02:49:24;0.40;;;0.40;;
28188;SDS011;15471;51.166;4.470;2023-02-28T02:51:54;0.40;;;0.40;;
28188;SDS011;15471;51.166;4.470;2023-02-28T02:54:22;0.40;;;0.40;;
28188;SDS011;15471;51.166;4.470;2023-02-28T02:56:54;0.40;;;0.40;;
28188;SDS011;15471;51.166;4.470;2023-02-28T02:59:27;0.40;;;0.40;;
28188;SDS011;15471;51.166;4.470;2023-02-28T03:01:57;0.40;;;0.40;;
28188;SDS011;15471;51.166;4.470;2023-02-28T03:04:26;0.50;;;0.50;;
28188;SDS011;15471;51.166;4.470;2023-02-28T03:06:57;0.50;;;0.50;;
28188;SDS011;15471;51.166;4.470;2023-02-28T03:09:24;0.40;;;0.40;;
28188;SDS011;15471;51.166;4.470;2023-02-28T03:11:51;0.40;;;0.40;;
28188;SDS011;15471;51.166;4.470;2023-02-28T03:22:53;0.47;;;0.47;;
28188;SDS011;15471;51.166;4.470;2023-02-28T03:25:33;0.40;;;0.40;;
28188;SDS011;15471;51.166;4.470;2023-02-28T03:28:22;0.40;;;0.40;;
28188;SDS011;15471;51.166;4.470;2023-02-28T03:31:03;0.40;;;0.40;;
28188;SDS011;15471;51.166;4.470;2023-02-28T03:33:39;0.40;;;0.40;;
28188;SDS011;15471;51.166;4.470;2023-02-28T03:36:20;0.50;;;0.50;;
28188;SDS011;15471;51.166;4.470;2023-02-28T03:38:51;0.40;;;0.40;;
28188;SDS011;15471;51.166;4.470;2023-02-28T03:41:31;0.40;;;0.40;;
28188;SDS011;15471;51.166;4.470;2023-02-28T03:44:03;0.40;;;0.40;;
28188;SDS011;15471;51.166;4.470;2023-02-28T03:46:35;0.40;;;0.40;;
28188;SDS011;15471;51.166;4.470;2023-02-28T03:49:06;0.40;;;0.40;;
28188;SDS011;15471;51.166;4.470;2023-02-28T03:51:39;0.40;;;0.40;;
28188;SDS011;15471;51.166;4.470;2023-02-28T03:54:22;0.40;;;0.40;;
28188;SDS011;15471;51.166;4.470;2023-02-28T03:57:03;0.40;;;0.40;;
28188;SDS011;15471;51.166;4.470;2023-02-28T03:59:38;0.40;;;0.40;;
28188;SDS011;15471;51.166;4.470;2023-02-28T04:04:34;0.40;;;0.40;;
28188;SDS011;15471;51.166;4.470;2023-02-28T04:07:01;0.40;;;0.40;;
28188;SDS011;15471;51.166;4.470;2023-02-28T04:09:33;0.40;;;0.40;;
28188;SDS011;15471;51.166;4.470;2023-02-28T04:11:59;0.40;;;0.40;;
28188;SDS011;15471;51.166;4.470;2023-02-28T04:14:25;0.40;;;0.40;;
28188;SDS011;15471;51.166;4.470;2023-02-28T04:16:51;0.40;;;0.40;;
28188;SDS011;15471;51.166;4.470;2023-02-28T04:19:17;0.40;;;0.40;;
28188;SDS011;15471;51.166;4.470;2023-02-28T04:21:45;0.40;;;0.40;;
28188;SDS011;15471;51.166;4.470;2023-02-28T04:26:52;0.40;;;0.40;;
28188;SDS011;15471;51.166;4.470;2023-02-28T04:29:23;0.40;;;0.40;;
28188;SDS011;15471;51.166;4.470;2023-02-28T04:34:18;0.40;;;0.40;;
28188;SDS011;15471;51.166;4.470;2023-02-28T04:36:46;0.40;;;0.40;;
28188;SDS011;15471;51.166;4.470;2023-02-28T04:39:14;0.40;;;0.40;;
28188;SDS011;15471;51.166;4.470;2023-02-28T04:41:43;0.40;;;0.40;;
28188;SDS011;15471;51.166;4.470;2023-02-28T04:44:10;0.40;;;0.40;;
28188;SDS011;15471;51.166;4.470;2023-02-28T04:46:35;0.40;;;0.40;;
28188;SDS011;15471;51.166;4.470;2023-02-28T04:49:01;0.30;;;0.30;;
28188;SDS011;15471;51.166;4.470;2023-02-28T04:51:28;0.40;;;0.40;;
28188;SDS011;15471;51.166;4.470;2023-02-28T04:53:53;0.30;;;0.30;;
28188;SDS011;15471;51.166;4.470;2023-02-28T04:56:20;0.40;;;0.40;;
28188;SDS011;15471;51.166;4.470;2023-02-28T04:58:46;0.30;;;0.30;;
28188;SDS011;15471;51.166;4.470;2023-02-28T05:01:29;0.30;;;0.30;;
28188;SDS011;15471;51.166;4.470;2023-02-28T05:03:58;0.30;;;0.30;;
28188;SDS011;15471;51.166;4.470;2023-02-28T05:06:27;0.40;;;0.40;;
28188;SDS011;15471;51.166;4.470;2023-02-28T05:08:55;0.30;;;0.30;;
28188;SDS011;15471;51.166;4.470;2023-02-28T05:11:23;0.30;;;0.30;;
28188;SDS011;15471;51.166;4.470;2023-02-28T05:13:54;0.30;;;0.30;;
28188;SDS011;15471;51.166;4.470;2023-02-28T05:16:20;0.30;;;0.30;;
28188;SDS011;15471;51.166;4.470;2023-02-28T05:18:46;0.30;;;0.30;;
28188;SDS011;15471;51.166;4.470;2023-02-28T05:21:29;0.30;;;0.30;;
28188;SDS011;15471;51.166;4.470;2023-02-28T05:23:58;0.30;;;0.30;;
28188;SDS011;15471;51.166;4.470;2023-02-28T05:26:25;0.30;;;0.30;;
28188;SDS011;15471;51.166;4.470;2023-02-28T05:28:52;0.30;;;0.30;;
28188;SDS011;15471;51.166;4.470;2023-02-28T05:31:18;0.30;;;0.30;;
28188;SDS011;15471;51.166;4.470;2023-02-28T05:33:44;0.30;;;0.30;;
28188;SDS011;15471;51.166;4.470;2023-02-28T05:36:10;0.30;;;0.30;;
28188;SDS011;15471;51.166;4.470;2023-02-28T05:38:36;0.40;;;0.40;;
28188;SDS011;15471;51.166;4.470;2023-02-28T05:41:06;0.40;;;0.40;;
28188;SDS011;15471;51.166;4.470;2023-02-28T05:43:33;0.30;;;0.30;;
28188;SDS011;15471;51.166;4.470;2023-02-28T05:46:02;0.30;;;0.30;;
28188;SDS011;15471;51.166;4.470;2023-02-28T05:48:29;0.30;;;0.30;;
28188;SDS011;15471;51.166;4.470;2023-02-28T05:50:56;0.30;;;0.30;;
28188;SDS011;15471;51.166;4.470;2023-02-28T05:53:22;0.30;;;0.30;;
28188;SDS011;15471;51.166;4.470;2023-02-28T05:55:48;0.30;;;0.30;;
28188;SDS011;15471;51.166;4.470;2023-02-28T05:58:14;0.30;;;0.30;;
28188;SDS011;15471;51.166;4.470;2023-02-28T06:00:40;0.30;;;0.30;;
28188;SDS011;15471;51.166;4.470;2023-02-28T06:03:05;0.30;;;0.30;;
28188;SDS011;15471;51.166;4.470;2023-02-28T06:05:31;0.30;;;0.30;;
28188;SDS011;15471;51.166;4.470;2023-02-28T06:07:58;0.30;;;0.30;;
28188;SDS011;15471;51.166;4.470;2023-02-28T06:10:24;0.30;;;0.30;;
28188;SDS011;15471;51.166;4.470;2023-02-28T06:12:50;0.30;;;0.30;;
28188;SDS011;15471;51.166;4.470;2023-02-28T06:15:16;0.30;;;0.30;;
28188;SDS011;15471;51.166;4.470;2023-02-28T06:17:42;0.30;;;0.30;;
28188;SDS011;15471;51.166;4.470;2023-02-28T06:20:08;0.30;;;0.30;;
28188;SDS011;15471;51.166;4.470;2023-02-28T06:22:38;0.30;;;0.30;;
28188;SDS011;15471;51.166;4.470;2023-02-28T06:25:04;0.30;;;0.30;;
28188;SDS011;15471;51.166;4.470;2023-02-28T06:27:32;0.30;;;0.30;;
28188;SDS011;15471;51.166;4.470;2023-02-28T06:29:59;0.30;;;0.30;;
28188;SDS011;15471;51.166;4.470;2023-02-28T06:32:25;0.30;;;0.30;;
28188;SDS011;15471;51.166;4.470;2023-02-28T06:34:51;0.30;;;0.30;;
28188;SDS011;15471;51.166;4.470;2023-02-28T06:37:18;0.30;;;0.30;;
28188;SDS011;15471;51.166;4.470;2023-02-28T06:39:44;0.30;;;0.30;;
28188;SDS011;15471;51.166;4.470;2023-02-28T06:42:10;0.30;;;0.30;;
28188;SDS011;15471;51.166;4.470;2023-02-28T06:44:35;0.30;;;0.30;;
28188;SDS011;15471;51.166;4.470;2023-02-28T06:47:02;0.30;;;0.30;;
28188;SDS011;15471;51.166;4.470;2023-02-28T06:49:32;0.30;;;0.30;;
28188;SDS011;15471;51.166;4.470;2023-02-28T06:51:59;0.30;;;0.30;;
28188;SDS011;15471;51.166;4.470;2023-02-28T06:54:25;0.30;;;0.30;;
28188;SDS011;15471;51.166;4.470;2023-02-28T06:56:55;0.30;;;0.30;;
28188;SDS011;15471;51.166;4.470;2023-02-28T06:59:22;0.30;;;0.30;;
28188;SDS011;15471;51.166;4.470;2023-02-28T07:01:48;0.30;;;0.30;;
28188;SDS011;15471;51.166;4.470;2023-02-28T07:04:14;0.30;;;0.30;;
28188;SDS011;15471;51.166;4.470;2023-02-28T07:06:39;0.30;;;0.30;;
28188;SDS011;15471;51.166;4.470;2023-02-28T07:09:06;0.30;;;0.30;;
28188;SDS011;15471;51.166;4.470;2023-02-28T07:11:35;0.30;;;0.30;;
28188;SDS011;15471;51.166;4.470;2023-02-28T07:14:01;0.30;;;0.30;;
28188;SDS011;15471;51.166;4.470;2023-02-28T07:16:27;0.30;;;0.30;;
28188;SDS011;15471;51.166;4.470;2023-02-28T07:18:53;0.30;;;0.30;;
28188;SDS011;15471;51.166;4.470;2023-02-28T07:21:20;0.30;;;0.30;;
28188;SDS011;15471;51.166;4.470;2023-02-28T07:23:46;0.20;;;0.20;;
28188;SDS011;15471;51.166;4.470;2023-02-28T07:26:13;0.30;;;0.30;;
28188;SDS011;15471;51.166;4.470;2023-02-28T07:28:41;0.30;;;0.30;;
28188;SDS011;15471;51.166;4.470;2023-02-28T07:31:08;0.30;;;0.30;;
28188;SDS011;15471;51.166;4.470;2023-02-28T07:33:34;0.30;;;0.30;;
28188;SDS011;15471;51.166;4.470;2023-02-28T07:36:02;0.30;;;0.30;;
28188;SDS011;15471;51.166;4.470;2023-02-28T07:38:29;0.30;;;0.30;;
28188;SDS011;15471;51.166;4.470;2023-02-28T07:40:55;0.30;;;0.30;;
28188;SDS011;15471;51.166;4.470;2023-02-28T07:43:21;0.30;;;0.30;;
28188;SDS011;15471;51.166;4.470;2023-02-28T07:45:47;0.30;;;0.30;;
28188;SDS011;15471;51.166;4.470;2023-02-28T07:48:12;0.30;;;0.30;;
28188;SDS011;15471;51.166;4.470;2023-02-28T07:50:38;0.30;;;0.30;;
28188;SDS011;15471;51.166;4.470;2023-02-28T07:53:04;0.25;;;0.25;;
28188;SDS011;15471;51.166;4.470;2023-02-28T07:55:30;0.30;;;0.30;;
28188;SDS011;15471;51.166;4.470;2023-02-28T07:57:56;0.30;;;0.30;;
28188;SDS011;15471;51.166;4.470;2023-02-28T08:00:23;0.30;;;0.30;;
28188;SDS011;15471;51.166;4.470;2023-02-28T08:02:49;0.20;;;0.20;;
28188;SDS011;15471;51.166;4.470;2023-02-28T08:05:15;0.20;;;0.20;;
28188;SDS011;15471;51.166;4.470;2023-02-28T08:07:41;0.20;;;0.20;;
28188;SDS011;15471;51.166;4.470;2023-02-28T08:10:07;0.30;;;0.30;;
28188;SDS011;15471;51.166;4.470;2023-02-28T08:12:35;0.30;;;0.30;;
28188;SDS011;15471;51.166;4.470;2023-02-28T08:15:00;0.30;;;0.30;;
28188;SDS011;15471;51.166;4.470;2023-02-28T08:17:26;0.20;;;0.20;;
28188;SDS011;15471;51.166;4.470;2023-02-28T08:19:52;0.20;;;0.20;;
28188;SDS011;15471;51.166;4.470;2023-02-28T08:22:18;0.20;;;0.20;;
28188;SDS011;15471;51.166;4.470;2023-02-28T08:24:44;0.30;;;0.30;;
28188;SDS011;15471;51.166;4.470;2023-02-28T08:27:10;0.20;;;0.20;;
28188;SDS011;15471;51.166;4.470;2023-02-28T08:29:36;0.20;;;0.20;;
28188;SDS011;15471;51.166;4.470;2023-02-28T08:32:03;0.20;;;0.20;;
28188;SDS011;15471;51.166;4.470;2023-02-28T08:34:30;0.20;;;0.20;;
28188;SDS011;15471;51.166;4.470;2023-02-28T08:36:55;0.20;;;0.20;;
28188;SDS011;15471;51.166;4.470;2023-02-28T08:39:21;0.20;;;0.20;;
28188;SDS011;15471;51.166;4.470;2023-02-28T08:41:47;0.20;;;0.20;;
28188;SDS011;15471;51.166;4.470;2023-02-28T08:44:13;0.30;;;0.30;;
28188;SDS011;15471;51.166;4.470;2023-02-28T08:46:38;0.20;;;0.20;;
28188;SDS011;15471;51.166;4.470;2023-02-28T08:49:04;0.30;;;0.30;;
28188;SDS011;15471;51.166;4.470;2023-02-28T08:51:30;0.20;;;0.20;;
28188;SDS011;15471;51.166;4.470;2023-02-28T08:53:58;0.20;;;0.20;;
28188;SDS011;15471;51.166;4.470;2023-02-28T08:56:25;0.20;;;0.20;;
28188;SDS011;15471;51.166;4.470;2023-02-28T08:58:53;0.20;;;0.20;;
28188;SDS011;15471;51.166;4.470;2023-02-28T09:01:22;0.20;;;0.20;;
28188;SDS011;15471;51.166;4.470;2023-02-28T09:03:49;0.20;;;0.20;;
28188;SDS011;15471;51.166;4.470;2023-02-28T09:06:16;0.20;;;0.20;;
28188;SDS011;15471;51.166;4.470;2023-02-28T09:08:43;0.20;;;0.20;;
28188;SDS011;15471;51.166;4.470;2023-02-28T09:11:09;0.20;;;0.20;;
28188;SDS011;15471;51.166;4.470;2023-02-28T09:13:36;0.20;;;0.20;;
28188;SDS011;15471;51.166;4.470;2023-02-28T09:16:03;0.20;;;0.20;;
28188;SDS011;15471;51.166;4.470;2023-02-28T09:18:31;0.20;;;0.20;;
28188;SDS011;15471;51.166;4.470;2023-02-28T09:20:58;0.20;;;0.20;;
28188;SDS011;15471;51.166;4.470;2023-02-28T09:23:24;0.20;;;0.20;;
28188;SDS011;15471;51.166;4.470;2023-02-28T09:25:51;0.20;;;0.20;;
28188;SDS011;15471;51.166;4.470;2023-02-28T09:28:19;0.20;;;0.20;;
28188;SDS011;15471;51.166;4.470;2023-02-28T09:30:47;0.10;;;0.10;;
28188;SDS011;15471;51.166;4.470;2023-02-28T09:33:15;0.10;;;0.10;;
28188;SDS011;15471;51.166;4.470;2023-02-28T09:35:41;0.10;;;0.10;;
28188;SDS011;15471;51.166;4.470;2023-02-28T09:38:08;0.10;;;0.10;;
28188;SDS011;15471;51.166;4.470;2023-02-28T09:40:35;0.10;;;0.10;;
28188;SDS011;15471;51.166;4.470;2023-02-28T09:43:04;0.10;;;0.10;;
28188;SDS011;15471;51.166;4.470;2023-02-28T09:48:03;0.10;;;0.10;;
28188;SDS011;15471;51.166;4.470;2023-02-28T09:50:51;0.10;;;0.10;;
28188;SDS011;15471;51.166;4.470;2023-02-28T09:53:38;0.10;;;0.10;;
28188;SDS011;15471;51.166;4.470;2023-02-28T09:56:09;0.10;;;0.10;;
28188;SDS011;15471;51.166;4.470;2023-02-28T09:59:02;0.10;;;0.10;;
28188;SDS011;15471;51.166;4.470;2023-02-28T10:06:36;0.10;;;0.10;;
28188;SDS011;15471;51.166;4.470;2023-02-28T10:09:11;0.10;;;0.10;;
28188;SDS011;15471;51.166;4.470;2023-02-28T10:11:43;0.10;;;0.10;;
28188;SDS011;15471;51.166;4.470;2023-02-28T10:14:12;0.10;;;0.10;;
28188;SDS011;15471;51.166;4.470;2023-02-28T10:16:52;0.10;;;0.10;;
28188;SDS011;15471;51.166;4.470;2023-02-28T10:19:43;0.10;;;0.10;;
28188;SDS011;15471;51.166;4.470;2023-02-28T10:22:24;0.10;;;0.10;;
28188;SDS011;15471;51.166;4.470;2023-02-28T10:25:15;0.10;;;0.10;;
28188;SDS011;15471;51.166;4.470;2023-02-28T10:27:46;0.10;;;0.10;;
28188;SDS011;15471;51.166;4.470;2023-02-28T10:30:12;0.20;;;0.20;;
28188;SDS011;15471;51.166;4.470;2023-02-28T10:32:44;0.20;;;0.20;;
28188;SDS011;15471;51.166;4.470;2023-02-28T10:35:17;0.15;;;0.15;;
28188;SDS011;15471;51.166;4.470;2023-02-28T10:37:46;0.10;;;0.10;;
28188;SDS011;15471;51.166;4.470;2023-02-28T10:45:22;0.20;;;0.20;;
28188;SDS011;15471;51.166;4.470;2023-02-28T10:48:02;0.20;;;0.20;;
28188;SDS011;15471;51.166;4.470;2023-02-28T10:50:42;0.20;;;0.20;;
28188;SDS011;15471;51.166;4.470;2023-02-28T10:53:14;0.20;;;0.20;;
28188;SDS011;15471;51.166;4.470;2023-02-28T10:58:54;0.20;;;0.20;;
28188;SDS011;15471;51.166;4.470;2023-02-28T11:01:37;0.20;;;0.20;;
28188;SDS011;15471;51.166;4.470;2023-02-28T11:04:20;0.20;;;0.20;;
28188;SDS011;15471;51.166;4.470;2023-02-28T11:07:17;0.20;;;0.20;;
28188;SDS011;15471;51.166;4.470;2023-02-28T11:09:45;0.20;;;0.20;;
28188;SDS011;15471;51.166;4.470;2023-02-28T11:14:58;0.20;;;0.20;;
28188;SDS011;15471;51.166;4.470;2023-02-28T11:17:28;0.20;;;0.20;;
28188;SDS011;15471;51.166;4.470;2023-02-28T11:20:01;0.20;;;0.20;;
28188;SDS011;15471;51.166;4.470;2023-02-28T11:22:32;0.20;;;0.20;;
28188;SDS011;15471;51.166;4.470;2023-02-28T11:32:52;0.20;;;0.20;;
28188;SDS011;15471;51.166;4.470;2023-02-28T11:35:39;0.20;;;0.20;;
28188;SDS011;15471;51.166;4.470;2023-02-28T11:38:07;0.20;;;0.20;;
28188;SDS011;15471;51.166;4.470;2023-02-28T11:43:27;0.20;;;0.20;;
28188;SDS011;15471;51.166;4.470;2023-02-28T11:46:06;0.20;;;0.20;;
28188;SDS011;15471;51.166;4.470;2023-02-28T11:48:46;0.20;;;0.20;;
28188;SDS011;15471;51.166;4.470;2023-02-28T11:51:35;0.20;;;0.20;;
28188;SDS011;15471;51.166;4.470;2023-02-28T11:54:32;0.20;;;0.20;;
28188;SDS011;15471;51.166;4.470;2023-02-28T11:57:16;0.20;;;0.20;;
28188;SDS011;15471;51.166;4.470;2023-02-28T12:02:28;0.20;;;0.20;;
28188;SDS011;15471;51.166;4.470;2023-02-28T12:07:58;0.20;;;0.20;;
28188;SDS011;15471;51.166;4.470;2023-02-28T12:10:57;0.20;;;0.20;;
28188;SDS011;15471;51.166;4.470;2023-02-28T12:13:21;0.20;;;0.20;;
28188;SDS011;15471;51.166;4.470;2023-02-28T12:18:39;0.20;;;0.20;;
28188;SDS011;15471;51.166;4.470;2023-02-28T12:27:16;0.20;;;0.20;;
28188;SDS011;15471;51.166;4.470;2023-02-28T12:29:47;0.20;;;0.20;;
28188;SDS011;15471;51.166;4.470;2023-02-28T12:32:40;0.20;;;0.20;;
28188;SDS011;15471;51.166;4.470;2023-02-28T12:37:41;0.20;;;0.20;;
28188;SDS011;15471;51.166;4.470;2023-02-28T12:40:19;0.20;;;0.20;;
28188;SDS011;15471;51.166;4.470;2023-02-28T12:48:21;0.20;;;0.20;;
28188;SDS011;15471;51.166;4.470;2023-02-28T12:50:52;0.20;;;0.20;;
28188;SDS011;15471;51.166;4.470;2023-02-28T12:53:27;0.20;;;0.20;;
28188;SDS011;15471;51.166;4.470;2023-02-28T12:56:24;0.20;;;0.20;;
28188;SDS011;15471;51.166;4.470;2023-02-28T12:59:02;0.20;;;0.20;;
28188;SDS011;15471;51.166;4.470;2023-02-28T13:04:45;0.20;;;0.20;;
28188;SDS011;15471;51.166;4.470;2023-02-28T13:10:03;0.20;;;0.20;;
28188;SDS011;15471;51.166;4.470;2023-02-28T13:12:32;0.20;;;0.20;;
28188;SDS011;15471;51.166;4.470;2023-02-28T13:17:37;0.20;;;0.20;;
28188;SDS011;15471;51.166;4.470;2023-02-28T13:20:19;0.20;;;0.20;;
28188;SDS011;15471;51.166;4.470;2023-02-28T13:22:50;0.20;;;0.20;;
28188;SDS011;15471;51.166;4.470;2023-02-28T13:28:00;0.20;;;0.20;;
28188;SDS011;15471;51.166;4.470;2023-02-28T13:36:44;0.20;;;0.20;;
28188;SDS011;15471;51.166;4.470;2023-02-28T13:41:41;0.20;;;0.20;;
28188;SDS011;15471;51.166;4.470;2023-02-28T13:57:00;0.20;;;0.20;;
28188;SDS011;15471;51.166;4.470;2023-02-28T13:59:42;0.20;;;0.20;;
28188;SDS011;15471;51.166;4.470;2023-02-28T14:02:47;0.20;;;0.20;;
28188;SDS011;15471;51.166;4.470;2023-02-28T14:05:17;0.10;;;0.10;;
28188;SDS011;15471;51.166;4.470;2023-02-28T14:07:47;0.10;;;0.10;;
28188;SDS011;15471;51.166;4.470;2023-02-28T14:10:28;0.20;;;0.20;;
28188;SDS011;15471;51.166;4.470;2023-02-28T14:15:55;0.20;;;0.20;;
28188;SDS011;15471;51.166;4.470;2023-02-28T14:18:30;0.20;;;0.20;;
28188;SDS011;15471;51.166;4.470;2023-02-28T14:21:22;0.20;;;0.20;;
28188;SDS011;15471;51.166;4.470;2023-02-28T14:32:31;0.20;;;0.20;;
28188;SDS011;15471;51.166;4.470;2023-02-28T14:38:53;0.10;;;0.10;;
28188;SDS011;15471;51.166;4.470;2023-02-28T14:41:21;0.20;;;0.20;;
28188;SDS011;15471;51.166;4.470;2023-02-28T14:43:48;0.10;;;0.10;;
28188;SDS011;15471;51.166;4.470;2023-02-28T14:46:20;0.20;;;0.20;;
28188;SDS011;15471;51.166;4.470;2023-02-28T14:48:48;0.20;;;0.20;;
28188;SDS011;15471;51.166;4.470;2023-02-28T14:51:19;0.20;;;0.20;;
28188;SDS011;15471;51.166;4.470;2023-02-28T14:53:51;0.20;;;0.20;;
28188;SDS011;15471;51.166;4.470;2023-02-28T14:56:30;0.20;;;0.20;;
28188;SDS011;15471;51.166;4.470;2023-02-28T14:59:04;0.20;;;0.20;;
28188;SDS011;15471;51.166;4.470;2023-02-28T15:01:44;0.10;;;0.10;;
28188;SDS011;15471;51.166;4.470;2023-02-28T15:04:12;0.10;;;0.10;;
28188;SDS011;15471;51.166;4.470;2023-02-28T15:07:09;0.20;;;0.20;;
28188;SDS011;15471;51.166;4.470;2023-02-28T15:09:39;0.20;;;0.20;;
28188;SDS011;15471;51.166;4.470;2023-02-28T15:12:06;0.20;;;0.20;;
28188;SDS011;15471;51.166;4.470;2023-02-28T15:14:42;0.10;;;0.10;;
28188;SDS011;15471;51.166;4.470;2023-02-28T15:17:11;0.10;;;0.10;;
28188;SDS011;15471;51.166;4.470;2023-02-28T15:19:47;0.20;;;0.20;;
28188;SDS011;15471;51.166;4.470;2023-02-28T15:22:18;0.10;;;0.10;;
28188;SDS011;15471;51.166;4.470;2023-02-28T15:24:50;0.20;;;0.20;;
28188;SDS011;15471;51.166;4.470;2023-02-28T15:27:22;0.13;;;0.13;;
28188;SDS011;15471;51.166;4.470;2023-02-28T15:29:54;0.20;;;0.20;;
28188;SDS011;15471;51.166;4.470;2023-02-28T15:34:54;0.10;;;0.10;;
28188;SDS011;15471;51.166;4.470;2023-02-28T15:40:22;0.10;;;0.10;;
28188;SDS011;15471;51.166;4.470;2023-02-28T15:43:05;0.20;;;0.20;;
28188;SDS011;15471;51.166;4.470;2023-02-28T15:45:46;0.20;;;0.20;;
28188;SDS011;15471;51.166;4.470;2023-02-28T15:48:18;0.10;;;0.10;;
28188;SDS011;15471;51.166;4.470;2023-02-28T15:50:53;0.20;;;0.20;;
28188;SDS011;15471;51.166;4.470;2023-02-28T15:53:28;0.20;;;0.20;;
28188;SDS011;15471;51.166;4.470;2023-02-28T15:55:59;0.20;;;0.20;;
28188;SDS011;15471;51.166;4.470;2023-02-28T15:58:30;0.20;;;0.20;;
28188;SDS011;15471;51.166;4.470;2023-02-28T16:01:00;0.20;;;0.20;;
28188;SDS011;15471;51.166;4.470;2023-02-28T16:03:39;0.20;;;0.20;;
28188;SDS011;15471;51.166;4.470;2023-02-28T16:06:09;0.20;;;0.20;;
28188;SDS011;15471;51.166;4.470;2023-02-28T16:08:51;0.20;;;0.20;;
28188;SDS011;15471;51.166;4.470;2023-02-28T16:11:18;0.20;;;0.20;;
28188;SDS011;15471;51.166;4.470;2023-02-28T16:13:46;0.20;;;0.20;;
28188;SDS011;15471;51.166;4.470;2023-02-28T16:16:18;0.10;;;0.10;;
28188;SDS011;15471;51.166;4.470;2023-02-28T16:18:49;0.20;;;0.20;;
28188;SDS011;15471;51.166;4.470;2023-02-28T16:21:16;0.20;;;0.20;;
28188;SDS011;15471;51.166;4.470;2023-02-28T16:23:42;0.20;;;0.20;;
28188;SDS011;15471;51.166;4.470;2023-02-28T16:26:08;0.20;;;0.20;;
28188;SDS011;15471;51.166;4.470;2023-02-28T16:28:43;0.20;;;0.20;;
28188;SDS011;15471;51.166;4.470;2023-02-28T16:31:10;0.20;;;0.20;;
28188;SDS011;15471;51.166;4.470;2023-02-28T16:33:41;0.20;;;0.20;;
28188;SDS011;15471;51.166;4.470;2023-02-28T16:36:19;0.20;;;0.20;;
28188;SDS011;15471;51.166;4.470;2023-02-28T16:38:47;0.20;;;0.20;;
28188;SDS011;15471;51.166;4.470;2023-02-28T16:41:22;0.20;;;0.20;;
28188;SDS011;15471;51.166;4.470;2023-02-28T16:43:53;0.20;;;0.20;;
28188;SDS011;15471;51.166;4.470;2023-02-28T16:46:24;0.20;;;0.20;;
28188;SDS011;15471;51.166;4.470;2023-02-28T16:48:54;0.20;;;0.20;;
28188;SDS011;15471;51.166;4.470;2023-02-28T16:51:20;0.20;;;0.20;;
28188;SDS011;15471;51.166;4.470;2023-02-28T16:53:46;0.20;;;0.20;;
28188;SDS011;15471;51.166;4.470;2023-02-28T16:56:17;0.20;;;0.20;;
28188;SDS011;15471;51.166;4.470;2023-02-28T16:58:47;0.20;;;0.20;;
28188;SDS011;15471;51.166;4.470;2023-02-28T17:01:15;0.20;;;0.20;;
28188;SDS011;15471;51.166;4.470;2023-02-28T17:03:41;0.20;;;0.20;;
28188;SDS011;15471;51.166;4.470;2023-02-28T17:06:18;0.20;;;0.20;;
28188;SDS011;15471;51.166;4.470;2023-02-28T17:08:49;0.20;;;0.20;;
28188;SDS011;15471;51.166;4.470;2023-02-28T17:11:16;0.20;;;0.20;;
28188;SDS011;15471;51.166;4.470;2023-02-28T17:13:43;0.20;;;0.20;;
28188;SDS011;15471;51.166;4.470;2023-02-28T17:18:54;0.20;;;0.20;;
28188;SDS011;15471;51.166;4.470;2023-02-28T17:21:22;0.20;;;0.20;;
28188;SDS011;15471;51.166;4.470;2023-02-28T17:23:48;0.20;;;0.20;;
28188;SDS011;15471;51.166;4.470;2023-02-28T17:26:14;0.20;;;0.20;;
28188;SDS011;15471;51.166;4.470;2023-02-28T17:28:43;0.20;;;0.20;;
28188;SDS011;15471;51.166;4.470;2023-02-28T17:31:09;0.20;;;0.20;;
28188;SDS011;15471;51.166;4.470;2023-02-28T17:33:35;0.20;;;0.20;;